createdAt,value
2023-12-04T00:19:06.374Z,0.86
2023-12-04T00:48:09.758Z,0.77
2023-12-04T01:16:59.931Z,0.35
2023-12-04T01:46:03.783Z,0.63
2023-12-04T02:15:03.835Z,0.7
2023-12-04T02:44:08.847Z,0.73
2023-12-04T03:12:57.386Z,0.47
2023-12-04T03:41:58.028Z,0.67
2023-12-04T04:11:00.007Z,1.07
2023-12-04T04:40:07.981Z,1.31
2023-12-04T05:09:07.545Z,1.09
2023-12-04T05:38:18.419Z,1.25
2023-12-04T06:07:20.560Z,1.26
2023-12-04T06:36:27.189Z,1.03
2023-12-04T07:05:21.580Z,0.55
2023-12-04T07:34:19.592Z,1.13
2023-12-04T08:03:23.413Z,1.34
2023-12-04T08:32:20.365Z,1.1
2023-12-04T09:01:27.460Z,1.68
2023-12-04T09:30:30.030Z,1.99
2023-12-04T09:59:28.459Z,1.52
2023-12-04T10:28:38.309Z,1.81
2023-12-04T10:57:47.594Z,2.91
2023-12-04T11:26:44.027Z,2.95
2023-12-04T11:55:53.862Z,2.71
2023-12-04T12:24:55.661Z,2.7
2023-12-04T12:53:56.104Z,3.27
2023-12-04T13:22:57.453Z,3.51
2023-12-04T13:52:00.882Z,3.64
2023-12-04T14:21:03.608Z,3.8
2023-12-04T14:50:08.353Z,3.92
2023-12-04T15:19:19.510Z,3.92
2023-12-04T15:48:17.870Z,3.82
2023-12-04T16:17:09.658Z,3.41
2023-12-04T16:46:12.932Z,3.06
2023-12-04T17:15:29.450Z,3.36
2023-12-04T17:45:20.641Z,3.73
2023-12-04T18:13:56.845Z,4.26
2023-12-04T18:42:47.200Z,3.95
2023-12-04T19:11:48.685Z,4.26
2023-12-04T19:40:57.136Z,4.13
2023-12-04T20:09:52.064Z,4.27
2023-12-04T20:38:58.362Z,4.15
2023-12-04T21:07:51.674Z,4.04
2023-12-04T21:37:07.478Z,4.46
2023-12-04T22:06:09.913Z,5.05
2023-12-04T22:35:10.105Z,5.12
2023-12-04T23:04:14.434Z,6.02
2023-12-04T23:33:12.221Z,7.88
